createdAt,value
2019-05-28T00:00:33.428Z,12.55
2019-05-28T00:03:04.823Z,16.45
2019-05-28T00:05:36.355Z,15.20
2019-05-28T00:08:07.660Z,13.58
2019-05-28T00:10:39.013Z,16.48
2019-05-28T00:13:10.399Z,14.25
2019-05-28T00:15:42.139Z,12.15
2019-05-28T00:18:13.367Z,13.78
2019-05-28T00:20:44.605Z,12.55
2019-05-28T00:23:16.361Z,16.00
2019-05-28T00:25:47.696Z,20.15
2019-05-28T00:28:19.084Z,17.90
2019-05-28T00:30:50.591Z,16.20
2019-05-28T00:33:21.893Z,12.98
2019-05-28T00:35:53.122Z,13.08
2019-05-28T00:38:24.326Z,15.48
2019-05-28T00:40:55.752Z,15.43
2019-05-28T00:43:27.012Z,12.28
2019-05-28T00:45:58.436Z,16.95
2019-05-28T00:48:29.707Z,14.03
2019-05-28T00:51:00.959Z,15.20
2019-05-28T00:53:32.357Z,13.15
2019-05-28T00:56:04.328Z,13.43
2019-05-28T00:58:39.786Z,13.15
2019-05-28T01:01:11.198Z,14.87
2019-05-28T01:03:42.560Z,13.25
2019-05-28T01:06:13.796Z,13.25
2019-05-28T01:08:44.984Z,14.10
2019-05-28T01:11:16.298Z,15.10
2019-05-28T01:13:47.495Z,14.65
2019-05-28T01:16:19.163Z,14.28
2019-05-28T01:18:50.745Z,14.75
2019-05-28T01:21:22.075Z,16.57
2019-05-28T01:23:54.132Z,14.83
2019-05-28T01:26:25.562Z,13.65
2019-05-28T01:28:56.832Z,15.90
2019-05-28T01:31:28.345Z,15.93
2019-05-28T01:33:59.731Z,15.63
2019-05-28T01:36:31.064Z,16.48
2019-05-28T01:39:02.163Z,17.57
2019-05-28T01:41:33.600Z,19.07
2019-05-28T01:44:04.987Z,19.25
2019-05-28T01:46:36.476Z,23.35
2019-05-28T01:49:07.756Z,35.65
2019-05-28T01:51:39.012Z,27.87
2019-05-28T01:54:10.312Z,22.27
2019-05-28T01:56:41.642Z,25.70
2019-05-28T01:59:12.904Z,20.40
2019-05-28T02:01:44.229Z,23.60
2019-05-28T02:04:15.611Z,27.73
2019-05-28T02:06:46.946Z,28.50
2019-05-28T02:09:18.261Z,24.02
2019-05-28T02:11:49.701Z,31.37
2019-05-28T02:14:20.984Z,24.50
2019-05-28T02:16:52.221Z,24.98
2019-05-28T02:19:23.565Z,33.05
2019-05-28T02:21:54.888Z,27.27
2019-05-28T02:24:27.177Z,29.95
2019-05-28T02:26:58.481Z,27.55
2019-05-28T02:29:29.974Z,31.75
2019-05-28T02:32:01.379Z,53.55
2019-05-28T02:34:32.761Z,57.67
2019-05-28T02:37:04.083Z,60.55
2019-05-28T02:39:35.365Z,40.67
2019-05-28T02:42:06.686Z,42.85
2019-05-28T02:44:37.963Z,49.77
2019-05-28T02:47:09.297Z,35.65
2019-05-28T02:49:40.578Z,41.25
2019-05-28T02:52:13.199Z,41.73
2019-05-28T02:54:44.574Z,50.17
2019-05-28T02:57:16.596Z,41.18
2019-05-28T02:59:49.680Z,37.53
2019-05-28T03:02:23.914Z,27.22
2019-05-28T03:04:58.493Z,25.55
2019-05-28T03:07:32.239Z,30.60
2019-05-28T03:10:05.444Z,30.48
2019-05-28T03:12:36.750Z,27.42
2019-05-28T03:15:09.229Z,24.90
2019-05-28T03:17:42.512Z,30.40
2019-05-28T03:20:14.104Z,22.87
2019-05-28T03:22:46.568Z,22.27
2019-05-28T03:25:20.731Z,27.37
2019-05-28T03:27:56.148Z,19.37
2019-05-28T03:30:27.453Z,24.20
2019-05-28T03:32:59.113Z,23.52
2019-05-28T03:35:30.383Z,21.87
2019-05-28T03:38:02.693Z,23.38
2019-05-28T03:40:43.205Z,26.80
2019-05-28T03:43:15.961Z,22.67
2019-05-28T03:45:48.276Z,20.30
2019-05-28T03:48:21.339Z,20.85
2019-05-28T03:50:54.255Z,24.07
2019-05-28T03:53:26.383Z,26.52
2019-05-28T03:55:59.200Z,20.57
2019-05-28T03:58:31.864Z,16.65
2019-05-28T04:01:05.169Z,21.70
2019-05-28T04:03:37.189Z,14.80
2019-05-28T04:06:10.327Z,19.85
2019-05-28T04:08:42.204Z,20.68
2019-05-28T04:11:14.006Z,20.50
2019-05-28T04:13:46.316Z,17.37
2019-05-28T04:16:18.073Z,23.07
2019-05-28T04:18:51.234Z,22.85
2019-05-28T04:21:23.159Z,22.80
2019-05-28T04:23:54.892Z,16.57
2019-05-28T04:26:27.854Z,21.27
2019-05-28T04:29:00.557Z,19.15
2019-05-28T04:31:32.727Z,15.05
2019-05-28T04:34:04.740Z,14.05
2019-05-28T04:36:38.323Z,17.50
2019-05-28T04:39:10.697Z,18.30
2019-05-28T04:41:42.881Z,22.60
2019-05-28T04:44:15.945Z,21.95
2019-05-28T04:46:48.293Z,23.02
2019-05-28T04:49:19.765Z,22.65
2019-05-28T04:51:51.042Z,19.05
2019-05-28T04:54:22.284Z,21.17
2019-05-28T04:56:53.565Z,18.32
2019-05-28T04:59:25.051Z,20.95
2019-05-28T05:01:56.483Z,18.35
2019-05-28T05:04:27.985Z,27.42
2019-05-28T05:06:59.399Z,31.73
2019-05-28T05:09:30.818Z,26.70
2019-05-28T05:12:02.220Z,27.50
2019-05-28T05:14:33.658Z,46.45
2019-05-28T05:17:04.997Z,33.28
2019-05-28T05:19:36.332Z,30.10
2019-05-28T05:22:07.723Z,34.20
2019-05-28T05:24:39.059Z,44.63
2019-05-28T05:27:11.167Z,46.10
2019-05-28T05:29:42.480Z,22.98
2019-05-28T05:32:13.741Z,22.40
2019-05-28T05:34:45.162Z,23.40
2019-05-28T05:37:16.741Z,27.62
2019-05-28T05:39:49.159Z,25.45
2019-05-28T05:42:20.730Z,21.60
2019-05-28T05:44:53.722Z,23.98
2019-05-28T05:47:25.005Z,24.45
2019-05-28T05:49:56.541Z,34.35
2019-05-28T05:52:27.790Z,24.27
2019-05-28T05:54:59.128Z,26.70
2019-05-28T05:57:30.433Z,24.43
2019-05-28T06:00:01.877Z,21.57
2019-05-28T06:02:33.131Z,14.18
2019-05-28T06:05:05.846Z,14.05
2019-05-28T06:07:37.075Z,13.03
2019-05-28T06:10:08.764Z,12.10
2019-05-28T06:12:39.958Z,13.08
2019-05-28T06:15:11.405Z,12.53
2019-05-28T06:17:42.858Z,9.75
2019-05-28T06:20:15.264Z,12.33
2019-05-28T06:22:46.530Z,16.07
2019-05-28T06:25:18.392Z,12.85
2019-05-28T06:27:49.799Z,12.13
2019-05-28T06:30:21.225Z,17.37
2019-05-28T06:32:52.986Z,13.70
2019-05-28T06:35:24.425Z,9.75
2019-05-28T06:37:55.789Z,9.40
2019-05-28T06:40:27.122Z,12.25
2019-05-28T06:43:01.088Z,11.63
2019-05-28T06:45:32.438Z,11.93
2019-05-28T06:48:03.671Z,10.05
2019-05-28T06:50:34.902Z,7.72
2019-05-28T06:53:06.314Z,10.93
2019-05-28T06:55:37.539Z,11.48
2019-05-28T06:58:08.814Z,9.40
2019-05-28T07:00:40.262Z,12.15
2019-05-28T07:03:11.654Z,14.05
2019-05-28T07:05:42.882Z,13.83
2019-05-28T07:08:14.173Z,10.20
2019-05-28T07:10:57.186Z,8.23
2019-05-28T07:13:18.411Z,15.48
2019-05-28T07:15:49.637Z,11.75
2019-05-28T07:18:23.373Z,9.30
2019-05-28T07:20:56.183Z,11.08
2019-05-28T07:23:27.835Z,10.85
2019-05-28T07:25:59.471Z,12.45
2019-05-28T07:28:31.108Z,9.40
2019-05-28T07:31:02.430Z,8.48
2019-05-28T07:33:35.783Z,7.33
2019-05-28T07:36:06.723Z,7.50
2019-05-28T07:38:38.018Z,8.88
2019-05-28T07:41:09.330Z,8.60
2019-05-28T07:43:40.524Z,8.10
2019-05-28T07:46:11.748Z,7.78
2019-05-28T07:48:43.031Z,9.35
2019-05-28T07:51:14.283Z,6.60
2019-05-28T07:53:45.455Z,5.87
2019-05-28T07:56:16.701Z,6.45
2019-05-28T07:58:47.956Z,8.45
2019-05-28T08:01:19.997Z,10.65
2019-05-28T08:03:51.554Z,5.15
2019-05-28T08:06:23.078Z,6.85
2019-05-28T08:08:54.343Z,5.95
2019-05-28T08:11:25.827Z,5.22
2019-05-28T08:13:57.215Z,6.67
2019-05-28T08:16:28.668Z,7.50
2019-05-28T08:18:59.891Z,8.35
2019-05-28T08:21:32.422Z,7.53
2019-05-28T08:24:04.012Z,7.87
2019-05-28T08:26:35.363Z,11.73
2019-05-28T08:29:06.683Z,7.75
2019-05-28T08:31:37.980Z,9.58
2019-05-28T08:34:10.809Z,8.80
2019-05-28T08:36:42.410Z,12.80
2019-05-28T08:39:13.728Z,13.25
2019-05-28T08:41:45.483Z,8.10
2019-05-28T08:44:16.893Z,7.25
2019-05-28T08:46:48.389Z,9.43
2019-05-28T08:49:25.213Z,10.15
2019-05-28T08:52:03.295Z,8.88
2019-05-28T08:54:34.637Z,11.20
2019-05-28T08:57:06.396Z,8.48
2019-05-28T08:59:37.972Z,6.35
2019-05-28T09:02:26.387Z,7.65
2019-05-28T09:04:43.516Z,9.65
2019-05-28T09:07:14.904Z,7.42
2019-05-28T09:09:46.093Z,7.28
2019-05-28T09:12:17.925Z,8.60
2019-05-28T09:14:56.130Z,9.18
2019-05-28T09:17:29.665Z,15.45
2019-05-28T09:20:23.614Z,10.10
2019-05-28T09:23:02.940Z,11.28
2019-05-28T09:25:35.587Z,11.43
2019-05-28T09:28:07.506Z,9.35
2019-05-28T09:30:46.181Z,7.33
2019-05-28T09:36:08.002Z,8.63
2019-05-28T09:38:37.196Z,9.70
2019-05-28T09:41:08.638Z,7.50
2019-05-28T09:43:42.180Z,7.62
2019-05-28T09:46:14.790Z,7.55
2019-05-28T09:48:46.082Z,8.40
2019-05-28T09:51:17.598Z,9.35
2019-05-28T09:53:49.003Z,8.18
2019-05-28T09:56:21.565Z,8.25
2019-05-28T09:58:53.266Z,8.40
2019-05-28T10:01:29.939Z,10.28
2019-05-28T10:04:02.887Z,8.55
2019-05-28T10:06:37.120Z,9.73
2019-05-28T10:09:07.827Z,12.45
2019-05-28T10:11:41.712Z,13.45
2019-05-28T10:14:12.969Z,12.78
2019-05-28T10:16:44.285Z,9.53
2019-05-28T10:19:15.577Z,8.53
2019-05-28T10:21:46.955Z,8.80
2019-05-28T10:24:18.317Z,10.82
2019-05-28T10:26:49.792Z,10.72
2019-05-28T10:29:20.930Z,24.75
2019-05-28T10:31:52.471Z,8.50
2019-05-28T10:34:23.650Z,9.98
2019-05-28T10:36:55.967Z,10.75
2019-05-28T10:39:27.299Z,9.15
2019-05-28T10:41:58.540Z,8.78
2019-05-28T10:44:29.887Z,27.17
2019-05-28T10:47:02.720Z,14.10
2019-05-28T10:49:34.223Z,9.40
2019-05-28T10:52:05.646Z,15.55
2019-05-28T10:54:37.648Z,16.20
2019-05-28T10:57:09.142Z,11.38
2019-05-28T10:59:41.179Z,10.60
2019-05-28T11:02:12.573Z,11.53
2019-05-28T11:04:45.443Z,15.88
2019-05-28T11:07:16.784Z,11.20
2019-05-28T11:09:48.062Z,9.90
2019-05-28T11:12:21.009Z,11.20
2019-05-28T11:14:52.177Z,9.98
2019-05-28T11:17:23.506Z,8.85
2019-05-28T11:19:54.798Z,15.63
2019-05-28T11:22:26.525Z,9.65
2019-05-28T11:24:57.825Z,10.55
2019-05-28T11:27:30.781Z,10.25
2019-05-28T11:30:02.216Z,10.23
2019-05-28T11:32:36.583Z,10.03
2019-05-28T11:35:08.680Z,12.00
2019-05-28T11:37:40.156Z,10.48
2019-05-28T11:40:16.266Z,10.95
2019-05-28T11:42:48.037Z,16.85
2019-05-28T11:45:19.678Z,13.38
2019-05-28T11:47:51.673Z,13.38
2019-05-28T11:50:23.268Z,12.20
2019-05-28T11:52:55.037Z,14.20
2019-05-28T11:55:26.491Z,9.75
2019-05-28T11:57:57.933Z,12.82
2019-05-28T12:00:29.644Z,18.07
2019-05-28T12:03:01.069Z,15.03
2019-05-28T12:05:32.545Z,9.95
2019-05-28T12:08:05.311Z,12.98
2019-05-28T12:10:36.967Z,11.57
2019-05-28T12:13:10.952Z,13.08
2019-05-28T12:15:42.654Z,8.88
2019-05-28T12:18:19.332Z,8.05
2019-05-28T12:20:59.892Z,7.28
2019-05-28T12:23:36.050Z,7.40
2019-05-28T12:26:10.384Z,6.78
2019-05-28T12:28:44.194Z,6.92
2019-05-28T12:31:20.108Z,6.87
2019-05-28T12:33:53.484Z,13.98
2019-05-28T12:36:27.023Z,7.72
2019-05-28T12:39:00.361Z,6.72
2019-05-28T12:41:32.933Z,7.72
2019-05-28T12:44:07.635Z,7.30
2019-05-28T12:46:39.527Z,13.40
2019-05-28T12:49:10.875Z,7.80
2019-05-28T12:51:52.519Z,11.35
2019-05-28T12:54:48.336Z,8.95
2019-05-28T12:57:38.373Z,6.92
2019-05-28T13:00:28.854Z,6.80
2019-05-28T13:03:15.282Z,6.42
2019-05-28T13:05:54.928Z,6.70
2019-05-28T13:08:42.740Z,7.22
2019-05-28T13:11:21.840Z,7.60
2019-05-28T13:14:01.625Z,7.00
2019-05-28T13:16:38.352Z,7.50
2019-05-28T13:19:33.050Z,18.55
2019-05-28T13:22:24.187Z,8.10
2019-05-28T13:27:40.163Z,10.72
2019-05-28T13:30:14.738Z,7.35
2019-05-28T13:32:47.072Z,9.60
2019-05-28T13:35:25.968Z,11.75
2019-05-28T13:37:57.334Z,7.95
2019-05-28T13:40:28.698Z,7.10
2019-05-28T13:43:01.035Z,9.45
2019-05-28T13:45:33.283Z,12.28
2019-05-28T13:48:05.030Z,10.25
2019-05-28T13:50:36.395Z,6.80
2019-05-28T13:53:09.337Z,6.45
2019-05-28T13:55:51.820Z,7.15
2019-05-28T13:58:23.705Z,6.33
2019-05-28T14:00:55.408Z,6.50
2019-05-28T14:03:26.840Z,8.98
2019-05-28T14:05:58.246Z,9.88
2019-05-28T14:08:46.022Z,7.42
2019-05-28T14:11:08.222Z,7.95
2019-05-28T14:13:39.820Z,8.35
2019-05-28T14:16:11.150Z,7.05
2019-05-28T14:18:42.975Z,8.40
2019-05-28T14:21:21.095Z,7.10
2019-05-28T14:23:52.827Z,7.97
2019-05-28T14:26:25.241Z,8.03
2019-05-28T14:28:56.563Z,7.65
2019-05-28T14:31:27.930Z,7.75
2019-05-28T14:33:59.353Z,8.15
2019-05-28T14:36:30.757Z,10.75
2019-05-28T14:39:04.288Z,9.50
2019-05-28T14:41:35.991Z,10.63
2019-05-28T14:44:07.862Z,8.15
2019-05-28T14:46:39.655Z,7.20
2019-05-28T14:49:11.057Z,8.40
2019-05-28T14:51:42.380Z,7.90
2019-05-28T14:54:13.735Z,9.30
2019-05-28T14:56:45.186Z,8.93
2019-05-28T14:59:16.776Z,7.83
2019-05-28T15:01:48.076Z,9.63
2019-05-28T15:04:21.028Z,8.78
2019-05-28T15:06:52.871Z,7.75
2019-05-28T15:09:24.291Z,8.30
2019-05-28T15:11:56.211Z,8.20
2019-05-28T15:14:27.522Z,8.68
2019-05-28T15:16:58.844Z,11.83
2019-05-28T15:19:30.199Z,8.58
2019-05-28T15:22:01.784Z,9.53
2019-05-28T15:24:34.534Z,12.73
2019-05-28T15:27:06.003Z,15.10
2019-05-28T15:29:39.059Z,8.40
2019-05-28T15:32:10.627Z,10.23
2019-05-28T15:34:41.984Z,8.90
2019-05-28T15:37:14.307Z,9.33
2019-05-28T15:39:45.644Z,8.75
2019-05-28T15:42:20.680Z,13.50
2019-05-28T15:44:50.423Z,9.78
2019-05-28T15:47:21.764Z,10.53
2019-05-28T15:49:53.159Z,11.95
2019-05-28T15:52:25.896Z,8.50
2019-05-28T15:54:57.547Z,9.88
2019-05-28T15:57:29.041Z,7.83
2019-05-28T16:00:00.526Z,9.23
2019-05-28T16:02:32.277Z,9.38
2019-05-28T16:05:03.844Z,8.53
2019-05-28T16:07:41.502Z,10.40
2019-05-28T16:10:12.998Z,9.10
2019-05-28T16:12:44.555Z,7.37
2019-05-28T16:15:16.243Z,7.65
2019-05-28T16:17:47.562Z,9.18
2019-05-28T16:20:18.928Z,8.83
2019-05-28T16:22:53.387Z,7.17
2019-05-28T16:25:24.714Z,9.70
2019-05-28T16:27:55.871Z,7.72
2019-05-28T16:30:28.769Z,13.93
2019-05-28T16:33:00.507Z,8.00
2019-05-28T16:35:32.030Z,11.20
2019-05-28T16:38:03.466Z,8.08
2019-05-28T16:40:34.804Z,7.37
2019-05-28T16:43:06.100Z,10.45
2019-05-28T16:45:37.627Z,10.38
2019-05-28T16:48:08.849Z,10.08
2019-05-28T16:50:40.329Z,9.95
2019-05-28T16:53:11.618Z,9.38
2019-05-28T16:55:42.939Z,13.10
2019-05-28T16:58:14.207Z,12.28
2019-05-28T17:00:45.520Z,10.43
2019-05-28T17:03:17.015Z,12.40
2019-05-28T17:05:48.354Z,11.83
2019-05-28T17:08:19.737Z,11.15
2019-05-28T17:10:51.406Z,9.50
2019-05-28T17:13:22.695Z,11.00
2019-05-28T17:15:53.994Z,14.03
2019-05-28T17:18:25.242Z,14.18
2019-05-28T17:20:56.529Z,10.58
2019-05-28T17:23:27.815Z,11.90
2019-05-28T17:25:59.122Z,14.73
2019-05-28T17:28:30.299Z,19.80
2019-05-28T17:31:01.631Z,19.55
2019-05-28T17:33:32.895Z,9.90
2019-05-28T17:36:04.339Z,14.80
2019-05-28T17:38:35.670Z,10.63
2019-05-28T17:41:07.001Z,8.83
2019-05-28T17:43:38.286Z,13.95
2019-05-28T17:46:09.811Z,12.10
2019-05-28T17:48:41.131Z,11.73
2019-05-28T17:51:12.481Z,7.90
2019-05-28T17:53:43.730Z,9.00
2019-05-28T17:56:15.078Z,8.45
2019-05-28T17:58:46.618Z,12.82
2019-05-28T18:01:18.009Z,9.60
2019-05-28T18:03:49.290Z,7.72
2019-05-28T18:06:20.745Z,7.92
2019-05-28T18:08:52.015Z,10.13
2019-05-28T18:11:23.294Z,6.97
2019-05-28T18:13:54.605Z,9.90
2019-05-28T18:16:25.949Z,7.87
2019-05-28T18:19:00.613Z,7.30
2019-05-28T18:21:30.297Z,11.22
2019-05-28T18:24:01.443Z,9.03
2019-05-28T18:26:32.779Z,10.50
2019-05-28T18:29:04.255Z,7.75
2019-05-28T18:31:35.577Z,10.70
2019-05-28T18:34:06.866Z,7.80
2019-05-28T18:36:38.327Z,7.22
2019-05-28T18:39:10.553Z,7.78
2019-05-28T18:41:41.900Z,6.60
2019-05-28T18:44:13.172Z,14.10
2019-05-28T18:46:44.541Z,10.68
2019-05-28T18:49:15.831Z,9.20
2019-05-28T18:51:47.109Z,7.75
2019-05-28T18:54:18.344Z,14.13
2019-05-28T18:56:50.317Z,10.70
2019-05-28T18:59:21.738Z,9.90
2019-05-28T19:01:53.014Z,15.70
2019-05-28T19:04:24.283Z,8.58
2019-05-28T19:06:55.613Z,13.40
2019-05-28T19:09:26.796Z,8.43
2019-05-28T19:11:57.995Z,10.88
2019-05-28T19:14:29.272Z,6.35
2019-05-28T19:17:00.662Z,10.05
2019-05-28T19:19:31.932Z,9.78
2019-05-28T19:22:03.256Z,8.88
2019-05-28T19:24:34.351Z,9.60
2019-05-28T19:27:05.726Z,8.50
2019-05-28T19:29:37.026Z,8.18
2019-05-28T19:32:08.326Z,7.25
2019-05-28T19:34:39.627Z,8.53
2019-05-28T19:37:12.175Z,11.25
2019-05-28T19:39:44.779Z,7.80
2019-05-28T19:42:16.139Z,8.68
2019-05-28T19:44:47.536Z,8.15
2019-05-28T19:47:18.913Z,6.12
2019-05-28T19:49:50.187Z,8.83
2019-05-28T19:52:21.546Z,5.50
2019-05-28T19:54:52.814Z,7.90
2019-05-28T19:57:24.140Z,7.55
2019-05-28T19:59:55.293Z,10.30
2019-05-28T20:02:26.634Z,11.12
2019-05-28T20:04:58.024Z,8.23
2019-05-28T20:07:29.370Z,14.70
2019-05-28T20:10:00.746Z,6.85
2019-05-28T20:12:32.229Z,5.87
2019-05-28T20:15:04.045Z,7.30
2019-05-28T20:17:35.254Z,6.80
2019-05-28T20:20:08.688Z,7.50
2019-05-28T20:22:40.143Z,7.37
2019-05-28T20:25:11.882Z,6.03
2019-05-28T20:27:43.139Z,9.05
2019-05-28T20:30:15.560Z,8.90
2019-05-28T20:32:46.914Z,8.03
2019-05-28T20:35:18.306Z,9.63
2019-05-28T20:37:49.560Z,7.78
2019-05-28T20:40:21.850Z,10.90
2019-05-28T20:42:53.384Z,9.60
2019-05-28T20:45:24.552Z,5.72
2019-05-28T20:47:55.896Z,8.85
2019-05-28T20:50:27.185Z,6.25
2019-05-28T20:52:58.533Z,8.13
2019-05-28T20:55:29.729Z,7.50
2019-05-28T20:58:01.085Z,8.08
2019-05-28T21:00:32.362Z,6.87
2019-05-28T21:03:03.671Z,7.17
2019-05-28T21:05:34.949Z,9.28
2019-05-28T21:08:06.199Z,9.75
2019-05-28T21:10:37.345Z,5.90
2019-05-28T21:13:08.670Z,7.78
2019-05-28T21:15:40.019Z,7.17
2019-05-28T21:18:11.392Z,11.12
2019-05-28T21:20:42.555Z,6.85
2019-05-28T21:23:13.737Z,5.55
2019-05-28T21:25:44.900Z,6.40
2019-05-28T21:28:16.100Z,6.30
2019-05-28T21:30:47.606Z,8.80
2019-05-28T21:33:18.849Z,6.25
2019-05-28T21:35:50.839Z,6.28
2019-05-28T21:38:22.207Z,10.28
2019-05-28T21:40:55.528Z,8.23
2019-05-28T21:43:26.867Z,6.08
2019-05-28T21:45:58.197Z,15.68
2019-05-28T21:48:29.538Z,7.25
2019-05-28T21:51:00.865Z,6.83
2019-05-28T21:53:32.177Z,9.25
2019-05-28T21:56:03.563Z,10.80
2019-05-28T21:58:34.879Z,9.18
2019-05-28T22:01:09.028Z,11.30
2019-05-28T22:03:40.290Z,12.93
2019-05-28T22:06:11.576Z,12.10
2019-05-28T22:08:42.934Z,10.80
2019-05-28T22:11:14.143Z,12.60
2019-05-28T22:13:45.476Z,13.75
2019-05-28T22:16:16.673Z,16.20
2019-05-28T22:18:48.022Z,13.88
2019-05-28T22:24:01.084Z,10.50
2019-05-28T22:26:32.364Z,13.15
2019-05-28T22:29:03.725Z,9.90
2019-05-28T22:31:34.898Z,13.40
2019-05-28T22:34:07.327Z,13.25
2019-05-28T22:36:38.591Z,10.25
2019-05-28T22:39:09.926Z,10.78
2019-05-28T22:41:42.589Z,9.68
2019-05-28T22:44:13.842Z,11.15
2019-05-28T22:46:45.044Z,11.78
2019-05-28T22:49:16.465Z,11.75
2019-05-28T22:51:47.751Z,9.80
2019-05-28T22:54:19.091Z,11.63
2019-05-28T22:56:50.290Z,8.70
2019-05-28T22:59:21.672Z,11.38
2019-05-28T23:01:52.884Z,9.18
2019-05-28T23:04:24.235Z,10.75
2019-05-28T23:06:55.523Z,10.35
2019-05-28T23:09:26.834Z,13.25
2019-05-28T23:11:58.116Z,9.43
2019-05-28T23:14:29.355Z,8.98
2019-05-28T23:17:00.653Z,8.45
2019-05-28T23:19:31.877Z,8.85
2019-05-28T23:22:03.031Z,8.75
2019-05-28T23:24:34.347Z,8.25
2019-05-28T23:27:05.638Z,10.15
2019-05-28T23:29:36.873Z,9.53
2019-05-28T23:32:08.306Z,8.80
2019-05-28T23:34:39.668Z,9.83
2019-05-28T23:37:10.983Z,9.10
2019-05-28T23:39:42.268Z,11.18
2019-05-28T23:42:14.571Z,9.25
2019-05-28T23:44:46.006Z,8.30
2019-05-28T23:47:17.289Z,8.83
2019-05-28T23:49:48.614Z,8.23
2019-05-28T23:52:19.879Z,11.60
2019-05-28T23:54:51.094Z,11.78
2019-05-28T23:57:22.212Z,9.03
2019-05-28T23:59:53.438Z,9.30
